sensor_id;sensor_type;location;lat;lon;timestamp;P1;durP1;ratioP1;P2;durP2;ratioP2
11596;SDS011;5854;48.072;16.286;2024-03-02T00:00:31;35.65;;;17.63;;
11596;SDS011;5854;48.072;16.286;2024-03-02T00:02:58;30.67;;;17.05;;
11596;SDS011;5854;48.072;16.286;2024-03-02T00:05:25;40.58;;;17.88;;
11596;SDS011;5854;48.072;16.286;2024-03-02T00:07:53;26.60;;;15.60;;
11596;SDS011;5854;48.072;16.286;2024-03-02T00:10:24;32.78;;;16.25;;
11596;SDS011;5854;48.072;16.286;2024-03-02T00:12:54;26.83;;;16.63;;
11596;SDS011;5854;48.072;16.286;2024-03-02T00:15:31;32.75;;;17.73;;
11596;SDS011;5854;48.072;16.286;2024-03-02T00:18:11;39.85;;;16.50;;
11596;SDS011;5854;48.072;16.286;2024-03-02T00:20:39;35.35;;;17.23;;
11596;SDS011;5854;48.072;16.286;2024-03-02T00:23:07;34.08;;;17.50;;
11596;SDS011;5854;48.072;16.286;2024-03-02T00:25:37;36.58;;;16.58;;
11596;SDS011;5854;48.072;16.286;2024-03-02T00:28:14;33.35;;;17.05;;
11596;SDS011;5854;48.072;16.286;2024-03-02T00:30:51;37.05;;;16.88;;
11596;SDS011;5854;48.072;16.286;2024-03-02T00:33:22;37.53;;;17.40;;
11596;SDS011;5854;48.072;16.286;2024-03-02T00:35:52;33.03;;;16.80;;
11596;SDS011;5854;48.072;16.286;2024-03-02T00:38:20;38.58;;;18.10;;
11596;SDS011;5854;48.072;16.286;2024-03-02T00:40:47;47.03;;;18.55;;
11596;SDS011;5854;48.072;16.286;2024-03-02T00:46:12;38.83;;;20.10;;
11596;SDS011;5854;48.072;16.286;2024-03-02T00:48:45;36.88;;;17.83;;
11596;SDS011;5854;48.072;16.286;2024-03-02T00:51:19;43.63;;;21.10;;
11596;SDS011;5854;48.072;16.286;2024-03-02T00:53:47;44.58;;;19.13;;
11596;SDS011;5854;48.072;16.286;2024-03-02T00:56:16;41.03;;;19.15;;
11596;SDS011;5854;48.072;16.286;2024-03-02T00:58:43;46.50;;;19.85;;
11596;SDS011;5854;48.072;16.286;2024-03-02T01:01:12;40.25;;;19.55;;
11596;SDS011;5854;48.072;16.286;2024-03-02T01:03:41;42.40;;;18.83;;
11596;SDS011;5854;48.072;16.286;2024-03-02T01:06:08;37.08;;;18.13;;
11596;SDS011;5854;48.072;16.286;2024-03-02T01:08:35;37.15;;;18.48;;
11596;SDS011;5854;48.072;16.286;2024-03-02T01:11:03;40.25;;;20.42;;
11596;SDS011;5854;48.072;16.286;2024-03-02T01:13:31;34.80;;;19.77;;
11596;SDS011;5854;48.072;16.286;2024-03-02T01:15:59;39.58;;;17.35;;
11596;SDS011;5854;48.072;16.286;2024-03-02T01:18:29;34.67;;;17.90;;
11596;SDS011;5854;48.072;16.286;2024-03-02T01:20:56;32.63;;;16.48;;
11596;SDS011;5854;48.072;16.286;2024-03-02T01:23:24;34.03;;;17.80;;
11596;SDS011;5854;48.072;16.286;2024-03-02T01:25:52;35.80;;;16.90;;
11596;SDS011;5854;48.072;16.286;2024-03-02T01:28:20;38.17;;;18.13;;
11596;SDS011;5854;48.072;16.286;2024-03-02T01:30:47;37.03;;;17.65;;
11596;SDS011;5854;48.072;16.286;2024-03-02T01:33:15;33.08;;;17.88;;
11596;SDS011;5854;48.072;16.286;2024-03-02T01:35:44;34.90;;;17.60;;
11596;SDS011;5854;48.072;16.286;2024-03-02T01:38:12;30.73;;;16.67;;
11596;SDS011;5854;48.072;16.286;2024-03-02T01:40:39;31.10;;;17.52;;
11596;SDS011;5854;48.072;16.286;2024-03-02T01:43:06;36.03;;;18.05;;
11596;SDS011;5854;48.072;16.286;2024-03-02T01:45:34;32.88;;;17.45;;
11596;SDS011;5854;48.072;16.286;2024-03-02T01:48:02;29.58;;;15.90;;
11596;SDS011;5854;48.072;16.286;2024-03-02T01:50:31;30.70;;;16.45;;
11596;SDS011;5854;48.072;16.286;2024-03-02T01:53:01;31.85;;;16.63;;
11596;SDS011;5854;48.072;16.286;2024-03-02T01:55:28;41.03;;;19.27;;
11596;SDS011;5854;48.072;16.286;2024-03-02T01:57:56;37.60;;;17.70;;
11596;SDS011;5854;48.072;16.286;2024-03-02T02:00:24;27.33;;;15.32;;
11596;SDS011;5854;48.072;16.286;2024-03-02T02:02:51;29.20;;;16.23;;
11596;SDS011;5854;48.072;16.286;2024-03-02T02:05:19;33.13;;;17.25;;
11596;SDS011;5854;48.072;16.286;2024-03-02T02:07:47;40.85;;;17.27;;
11596;SDS011;5854;48.072;16.286;2024-03-02T02:10:16;32.60;;;15.48;;
11596;SDS011;5854;48.072;16.286;2024-03-02T02:12:43;27.63;;;15.73;;
11596;SDS011;5854;48.072;16.286;2024-03-02T02:15:23;31.40;;;16.33;;
11596;SDS011;5854;48.072;16.286;2024-03-02T02:17:51;27.45;;;15.15;;
11596;SDS011;5854;48.072;16.286;2024-03-02T02:20:19;30.35;;;16.27;;
11596;SDS011;5854;48.072;16.286;2024-03-02T02:22:58;41.00;;;18.55;;
11596;SDS011;5854;48.072;16.286;2024-03-02T02:25:26;35.95;;;17.48;;
11596;SDS011;5854;48.072;16.286;2024-03-02T02:27:54;33.85;;;17.77;;
11596;SDS011;5854;48.072;16.286;2024-03-02T02:30:22;27.77;;;15.85;;
11596;SDS011;5854;48.072;16.286;2024-03-02T02:32:51;32.95;;;17.48;;
11596;SDS011;5854;48.072;16.286;2024-03-02T02:35:18;33.90;;;16.83;;
11596;SDS011;5854;48.072;16.286;2024-03-02T02:37:46;42.03;;;18.77;;
11596;SDS011;5854;48.072;16.286;2024-03-02T02:40:16;41.28;;;18.13;;
11596;SDS011;5854;48.072;16.286;2024-03-02T02:42:45;34.22;;;18.15;;
11596;SDS011;5854;48.072;16.286;2024-03-02T02:45:12;30.73;;;17.98;;
11596;SDS011;5854;48.072;16.286;2024-03-02T02:47:40;43.13;;;19.52;;
11596;SDS011;5854;48.072;16.286;2024-03-02T02:50:08;38.95;;;19.40;;
11596;SDS011;5854;48.072;16.286;2024-03-02T02:52:36;45.38;;;21.58;;
11596;SDS011;5854;48.072;16.286;2024-03-02T02:55:05;37.85;;;19.75;;
11596;SDS011;5854;48.072;16.286;2024-03-02T02:57:36;42.30;;;20.58;;
11596;SDS011;5854;48.072;16.286;2024-03-02T03:00:05;43.05;;;21.13;;
11596;SDS011;5854;48.072;16.286;2024-03-02T03:02:39;33.55;;;17.30;;
11596;SDS011;5854;48.072;16.286;2024-03-02T03:05:08;37.38;;;19.02;;
11596;SDS011;5854;48.072;16.286;2024-03-02T03:07:36;35.75;;;18.48;;
11596;SDS011;5854;48.072;16.286;2024-03-02T03:10:05;32.92;;;17.67;;
11596;SDS011;5854;48.072;16.286;2024-03-02T03:12:33;43.35;;;20.52;;
11596;SDS011;5854;48.072;16.286;2024-03-02T03:15:03;41.08;;;20.40;;
11596;SDS011;5854;48.072;16.286;2024-03-02T03:17:32;29.52;;;16.92;;
11596;SDS011;5854;48.072;16.286;2024-03-02T03:20:00;38.22;;;18.90;;
11596;SDS011;5854;48.072;16.286;2024-03-02T03:22:29;33.40;;;17.38;;
11596;SDS011;5854;48.072;16.286;2024-03-02T03:24:56;35.67;;;18.25;;
11596;SDS011;5854;48.072;16.286;2024-03-02T03:27:23;37.97;;;18.20;;
11596;SDS011;5854;48.072;16.286;2024-03-02T03:29:52;35.92;;;17.33;;
11596;SDS011;5854;48.072;16.286;2024-03-02T03:32:20;39.15;;;17.88;;
11596;SDS011;5854;48.072;16.286;2024-03-02T03:34:47;37.50;;;18.42;;
11596;SDS011;5854;48.072;16.286;2024-03-02T03:37:14;37.00;;;17.65;;
11596;SDS011;5854;48.072;16.286;2024-03-02T03:39:41;37.17;;;19.63;;
11596;SDS011;5854;48.072;16.286;2024-03-02T03:42:09;27.25;;;16.33;;
11596;SDS011;5854;48.072;16.286;2024-03-02T03:44:36;37.88;;;17.80;;
11596;SDS011;5854;48.072;16.286;2024-03-02T03:47:06;38.78;;;18.45;;
11596;SDS011;5854;48.072;16.286;2024-03-02T03:49:33;34.03;;;17.90;;
11596;SDS011;5854;48.072;16.286;2024-03-02T03:52:00;32.90;;;17.95;;
11596;SDS011;5854;48.072;16.286;2024-03-02T03:54:29;36.97;;;18.92;;
11596;SDS011;5854;48.072;16.286;2024-03-02T03:56:56;34.60;;;17.88;;
11596;SDS011;5854;48.072;16.286;2024-03-02T03:59:23;37.10;;;17.55;;
11596;SDS011;5854;48.072;16.286;2024-03-02T04:01:50;37.00;;;18.60;;
11596;SDS011;5854;48.072;16.286;2024-03-02T04:04:20;32.53;;;17.63;;
11596;SDS011;5854;48.072;16.286;2024-03-02T04:06:47;40.60;;;20.17;;
11596;SDS011;5854;48.072;16.286;2024-03-02T04:09:14;40.55;;;19.05;;
11596;SDS011;5854;48.072;16.286;2024-03-02T04:11:42;37.45;;;18.45;;
11596;SDS011;5854;48.072;16.286;2024-03-02T04:14:09;30.88;;;16.92;;
11596;SDS011;5854;48.072;16.286;2024-03-02T04:16:37;32.10;;;15.63;;
11596;SDS011;5854;48.072;16.286;2024-03-02T04:19:05;28.00;;;17.00;;
11596;SDS011;5854;48.072;16.286;2024-03-02T04:21:33;24.58;;;15.50;;
11596;SDS011;5854;48.072;16.286;2024-03-02T04:24:01;29.70;;;14.40;;
11596;SDS011;5854;48.072;16.286;2024-03-02T04:26:28;28.70;;;16.23;;
11596;SDS011;5854;48.072;16.286;2024-03-02T04:28:55;24.10;;;13.50;;
11596;SDS011;5854;48.072;16.286;2024-03-02T04:31:22;27.52;;;15.63;;
11596;SDS011;5854;48.072;16.286;2024-03-02T04:33:50;24.33;;;14.90;;
11596;SDS011;5854;48.072;16.286;2024-03-02T04:36:17;23.27;;;13.02;;
11596;SDS011;5854;48.072;16.286;2024-03-02T04:38:45;21.65;;;12.40;;
11596;SDS011;5854;48.072;16.286;2024-03-02T04:41:13;25.77;;;13.65;;
11596;SDS011;5854;48.072;16.286;2024-03-02T04:43:40;21.75;;;12.82;;
11596;SDS011;5854;48.072;16.286;2024-03-02T04:46:07;22.45;;;13.05;;
11596;SDS011;5854;48.072;16.286;2024-03-02T04:48:35;19.20;;;12.32;;
11596;SDS011;5854;48.072;16.286;2024-03-02T04:51:03;20.65;;;12.40;;
11596;SDS011;5854;48.072;16.286;2024-03-02T04:53:30;20.30;;;12.63;;
11596;SDS011;5854;48.072;16.286;2024-03-02T04:55:59;23.38;;;13.88;;
11596;SDS011;5854;48.072;16.286;2024-03-02T04:58:44;22.83;;;13.40;;
11596;SDS011;5854;48.072;16.286;2024-03-02T05:01:11;21.05;;;14.27;;
11596;SDS011;5854;48.072;16.286;2024-03-02T05:03:38;32.35;;;15.57;;
11596;SDS011;5854;48.072;16.286;2024-03-02T05:06:05;32.15;;;17.42;;
11596;SDS011;5854;48.072;16.286;2024-03-02T05:08:33;25.73;;;15.52;;
11596;SDS011;5854;48.072;16.286;2024-03-02T05:11:02;34.85;;;16.77;;
11596;SDS011;5854;48.072;16.286;2024-03-02T05:13:43;38.22;;;18.02;;
11596;SDS011;5854;48.072;16.286;2024-03-02T05:16:10;35.78;;;17.58;;
11596;SDS011;5854;48.072;16.286;2024-03-02T05:18:38;51.40;;;20.05;;
11596;SDS011;5854;48.072;16.286;2024-03-02T05:21:05;80.43;;;21.75;;
11596;SDS011;5854;48.072;16.286;2024-03-02T05:23:32;41.47;;;19.55;;
11596;SDS011;5854;48.072;16.286;2024-03-02T05:25:59;48.30;;;18.58;;
11596;SDS011;5854;48.072;16.286;2024-03-02T05:28:28;55.85;;;20.30;;
11596;SDS011;5854;48.072;16.286;2024-03-02T05:30:55;50.15;;;19.67;;
11596;SDS011;5854;48.072;16.286;2024-03-02T05:33:23;67.03;;;19.63;;
11596;SDS011;5854;48.072;16.286;2024-03-02T05:35:50;41.95;;;20.38;;
11596;SDS011;5854;48.072;16.286;2024-03-02T05:38:17;52.88;;;20.13;;
11596;SDS011;5854;48.072;16.286;2024-03-02T05:40:44;48.67;;;18.88;;
11596;SDS011;5854;48.072;16.286;2024-03-02T05:43:13;75.30;;;21.13;;
11596;SDS011;5854;48.072;16.286;2024-03-02T05:45:40;59.72;;;20.60;;
11596;SDS011;5854;48.072;16.286;2024-03-02T05:48:07;80.70;;;21.13;;
11596;SDS011;5854;48.072;16.286;2024-03-02T05:50:35;40.42;;;20.50;;
11596;SDS011;5854;48.072;16.286;2024-03-02T05:53:02;78.10;;;19.85;;
11596;SDS011;5854;48.072;16.286;2024-03-02T05:55:30;41.67;;;19.02;;
11596;SDS011;5854;48.072;16.286;2024-03-02T05:57:57;37.50;;;19.35;;
11596;SDS011;5854;48.072;16.286;2024-03-02T06:00:42;52.25;;;17.83;;
11596;SDS011;5854;48.072;16.286;2024-03-02T06:03:09;36.40;;;16.42;;
11596;SDS011;5854;48.072;16.286;2024-03-02T06:05:36;74.43;;;17.00;;
11596;SDS011;5854;48.072;16.286;2024-03-02T06:08:03;71.05;;;18.23;;
11596;SDS011;5854;48.072;16.286;2024-03-02T06:10:32;46.75;;;15.00;;
11596;SDS011;5854;48.072;16.286;2024-03-02T06:12:59;33.58;;;15.13;;
11596;SDS011;5854;48.072;16.286;2024-03-02T06:15:27;26.27;;;14.60;;
11596;SDS011;5854;48.072;16.286;2024-03-02T06:17:55;131.30;;;16.90;;
11596;SDS011;5854;48.072;16.286;2024-03-02T06:20:22;51.65;;;15.95;;
11596;SDS011;5854;48.072;16.286;2024-03-02T06:22:51;38.35;;;17.20;;
11596;SDS011;5854;48.072;16.286;2024-03-02T06:25:19;111.28;;;17.05;;
11596;SDS011;5854;48.072;16.286;2024-03-02T06:27:46;35.47;;;16.35;;
11596;SDS011;5854;48.072;16.286;2024-03-02T06:30:14;36.03;;;16.35;;
11596;SDS011;5854;48.072;16.286;2024-03-02T06:32:41;61.35;;;17.00;;
11596;SDS011;5854;48.072;16.286;2024-03-02T06:35:10;47.60;;;16.33;;
11596;SDS011;5854;48.072;16.286;2024-03-02T06:37:38;25.73;;;15.00;;
11596;SDS011;5854;48.072;16.286;2024-03-02T06:40:06;67.30;;;14.80;;
11596;SDS011;5854;48.072;16.286;2024-03-02T06:42:34;69.78;;;16.65;;
11596;SDS011;5854;48.072;16.286;2024-03-02T06:45:02;37.47;;;16.13;;
11596;SDS011;5854;48.072;16.286;2024-03-02T06:47:30;67.82;;;14.80;;
11596;SDS011;5854;48.072;16.286;2024-03-02T06:49:57;68.50;;;15.85;;
11596;SDS011;5854;48.072;16.286;2024-03-02T06:52:26;58.10;;;15.23;;
11596;SDS011;5854;48.072;16.286;2024-03-02T06:54:53;44.88;;;15.70;;
11596;SDS011;5854;48.072;16.286;2024-03-02T06:57:20;51.63;;;16.27;;
11596;SDS011;5854;48.072;16.286;2024-03-02T06:59:49;55.53;;;17.55;;
11596;SDS011;5854;48.072;16.286;2024-03-02T07:02:19;42.58;;;15.52;;
11596;SDS011;5854;48.072;16.286;2024-03-02T07:04:48;39.17;;;15.07;;
11596;SDS011;5854;48.072;16.286;2024-03-02T07:07:16;30.63;;;13.57;;
11596;SDS011;5854;48.072;16.286;2024-03-02T07:09:45;28.92;;;15.63;;
11596;SDS011;5854;48.072;16.286;2024-03-02T07:12:12;24.35;;;15.70;;
11596;SDS011;5854;48.072;16.286;2024-03-02T07:14:39;24.65;;;15.18;;
11596;SDS011;5854;48.072;16.286;2024-03-02T07:17:36;25.85;;;15.45;;
11596;SDS011;5854;48.072;16.286;2024-03-02T07:20:04;26.65;;;14.90;;
11596;SDS011;5854;48.072;16.286;2024-03-02T07:22:32;28.52;;;15.93;;
11596;SDS011;5854;48.072;16.286;2024-03-02T07:25:02;34.70;;;19.33;;
11596;SDS011;5854;48.072;16.286;2024-03-02T07:27:32;24.05;;;13.57;;
11596;SDS011;5854;48.072;16.286;2024-03-02T07:30:00;23.23;;;14.55;;
11596;SDS011;5854;48.072;16.286;2024-03-02T07:32:28;22.75;;;15.52;;
11596;SDS011;5854;48.072;16.286;2024-03-02T07:34:55;27.38;;;15.48;;
11596;SDS011;5854;48.072;16.286;2024-03-02T07:37:22;26.13;;;15.68;;
11596;SDS011;5854;48.072;16.286;2024-03-02T07:39:50;24.30;;;14.70;;
11596;SDS011;5854;48.072;16.286;2024-03-02T07:42:18;21.13;;;13.60;;
11596;SDS011;5854;48.072;16.286;2024-03-02T07:44:46;23.20;;;14.25;;
11596;SDS011;5854;48.072;16.286;2024-03-02T07:47:13;25.65;;;14.50;;
11596;SDS011;5854;48.072;16.286;2024-03-02T07:49:40;29.38;;;15.82;;
11596;SDS011;5854;48.072;16.286;2024-03-02T07:52:07;28.67;;;14.07;;
11596;SDS011;5854;48.072;16.286;2024-03-02T07:54:35;15.50;;;11.45;;
11596;SDS011;5854;48.072;16.286;2024-03-02T07:57:02;22.13;;;14.43;;
11596;SDS011;5854;48.072;16.286;2024-03-02T07:59:31;23.05;;;13.18;;
11596;SDS011;5854;48.072;16.286;2024-03-02T08:01:59;24.35;;;13.60;;
11596;SDS011;5854;48.072;16.286;2024-03-02T08:04:26;27.70;;;13.95;;
11596;SDS011;5854;48.072;16.286;2024-03-02T08:06:53;21.88;;;14.10;;
11596;SDS011;5854;48.072;16.286;2024-03-02T08:09:20;22.58;;;14.27;;
11596;SDS011;5854;48.072;16.286;2024-03-02T08:11:48;25.23;;;13.85;;
11596;SDS011;5854;48.072;16.286;2024-03-02T08:14:15;30.50;;;16.10;;
11596;SDS011;5854;48.072;16.286;2024-03-02T08:16:44;33.08;;;16.15;;
11596;SDS011;5854;48.072;16.286;2024-03-02T08:19:12;28.27;;;14.32;;
11596;SDS011;5854;48.072;16.286;2024-03-02T08:21:39;32.40;;;14.95;;
11596;SDS011;5854;48.072;16.286;2024-03-02T08:24:06;20.90;;;13.52;;
11596;SDS011;5854;48.072;16.286;2024-03-02T08:26:34;22.73;;;13.13;;
11596;SDS011;5854;48.072;16.286;2024-03-02T08:29:01;24.38;;;14.10;;
11596;SDS011;5854;48.072;16.286;2024-03-02T08:31:28;21.27;;;9.70;;
11596;SDS011;5854;48.072;16.286;2024-03-02T08:33:57;18.00;;;11.27;;
11596;SDS011;5854;48.072;16.286;2024-03-02T08:36:25;32.05;;;15.88;;
11596;SDS011;5854;48.072;16.286;2024-03-02T08:38:53;26.50;;;15.10;;
11596;SDS011;5854;48.072;16.286;2024-03-02T08:41:20;17.77;;;11.70;;
11596;SDS011;5854;48.072;16.286;2024-03-02T08:43:48;26.95;;;15.13;;
11596;SDS011;5854;48.072;16.286;2024-03-02T08:46:15;23.58;;;12.70;;
11596;SDS011;5854;48.072;16.286;2024-03-02T08:48:43;28.92;;;17.02;;
11596;SDS011;5854;48.072;16.286;2024-03-02T08:51:12;25.73;;;15.70;;
11596;SDS011;5854;48.072;16.286;2024-03-02T08:53:39;20.38;;;13.40;;
11596;SDS011;5854;48.072;16.286;2024-03-02T08:56:07;31.42;;;15.93;;
11596;SDS011;5854;48.072;16.286;2024-03-02T08:58:34;28.48;;;16.13;;
11596;SDS011;5854;48.072;16.286;2024-03-02T09:01:02;27.40;;;15.38;;
11596;SDS011;5854;48.072;16.286;2024-03-02T09:03:31;31.15;;;16.85;;
11596;SDS011;5854;48.072;16.286;2024-03-02T09:05:59;23.52;;;14.52;;
11596;SDS011;5854;48.072;16.286;2024-03-02T09:08:28;29.15;;;13.57;;
11596;SDS011;5854;48.072;16.286;2024-03-02T09:10:55;30.45;;;16.50;;
11596;SDS011;5854;48.072;16.286;2024-03-02T09:13:23;32.50;;;16.52;;
11596;SDS011;5854;48.072;16.286;2024-03-02T09:15:50;33.95;;;16.60;;
11596;SDS011;5854;48.072;16.286;2024-03-02T09:18:18;28.92;;;16.73;;
11596;SDS011;5854;48.072;16.286;2024-03-02T09:20:45;32.78;;;17.40;;
11596;SDS011;5854;48.072;16.286;2024-03-02T09:23:12;30.70;;;17.13;;
11596;SDS011;5854;48.072;16.286;2024-03-02T09:25:41;28.90;;;15.85;;
11596;SDS011;5854;48.072;16.286;2024-03-02T09:28:09;28.30;;;16.60;;
11596;SDS011;5854;48.072;16.286;2024-03-02T09:30:37;32.55;;;16.88;;
11596;SDS011;5854;48.072;16.286;2024-03-02T09:33:04;26.42;;;12.57;;
11596;SDS011;5854;48.072;16.286;2024-03-02T09:35:31;30.80;;;17.27;;
11596;SDS011;5854;48.072;16.286;2024-03-02T09:37:59;35.78;;;17.73;;
11596;SDS011;5854;48.072;16.286;2024-03-02T09:40:26;30.80;;;15.32;;
11596;SDS011;5854;48.072;16.286;2024-03-02T09:42:55;30.55;;;16.35;;
11596;SDS011;5854;48.072;16.286;2024-03-02T09:45:23;31.40;;;17.30;;
11596;SDS011;5854;48.072;16.286;2024-03-02T09:47:52;35.28;;;18.63;;
11596;SDS011;5854;48.072;16.286;2024-03-02T09:50:19;41.33;;;20.60;;
11596;SDS011;5854;48.072;16.286;2024-03-02T09:52:48;36.20;;;20.02;;
11596;SDS011;5854;48.072;16.286;2024-03-02T09:55:15;33.45;;;17.98;;
11596;SDS011;5854;48.072;16.286;2024-03-02T09:57:44;34.40;;;17.67;;
11596;SDS011;5854;48.072;16.286;2024-03-02T10:00:15;39.08;;;17.77;;
11596;SDS011;5854;48.072;16.286;2024-03-02T10:02:43;46.38;;;23.15;;
11596;SDS011;5854;48.072;16.286;2024-03-02T10:05:14;40.53;;;23.00;;
11596;SDS011;5854;48.072;16.286;2024-03-02T10:07:58;45.53;;;23.20;;
11596;SDS011;5854;48.072;16.286;2024-03-02T10:10:34;35.30;;;20.20;;
11596;SDS011;5854;48.072;16.286;2024-03-02T10:13:05;47.03;;;23.48;;
11596;SDS011;5854;48.072;16.286;2024-03-02T10:15:35;45.20;;;22.35;;
11596;SDS011;5854;48.072;16.286;2024-03-02T10:20:35;45.35;;;20.02;;
11596;SDS011;5854;48.072;16.286;2024-03-02T10:23:12;40.50;;;22.45;;
11596;SDS011;5854;48.072;16.286;2024-03-02T10:25:42;36.92;;;19.75;;
11596;SDS011;5854;48.072;16.286;2024-03-02T10:28:10;54.88;;;25.33;;
11596;SDS011;5854;48.072;16.286;2024-03-02T10:30:39;51.30;;;25.58;;
11596;SDS011;5854;48.072;16.286;2024-03-02T10:33:06;53.97;;;24.30;;
11596;SDS011;5854;48.072;16.286;2024-03-02T10:35:33;47.95;;;23.65;;
11596;SDS011;5854;48.072;16.286;2024-03-02T10:38:03;44.17;;;24.45;;
11596;SDS011;5854;48.072;16.286;2024-03-02T10:40:32;46.92;;;22.27;;
11596;SDS011;5854;48.072;16.286;2024-03-02T10:42:59;44.67;;;22.20;;
11596;SDS011;5854;48.072;16.286;2024-03-02T10:45:30;38.83;;;21.58;;
11596;SDS011;5854;48.072;16.286;2024-03-02T10:47:59;37.88;;;20.40;;
11596;SDS011;5854;48.072;16.286;2024-03-02T10:50:30;40.58;;;21.15;;
11596;SDS011;5854;48.072;16.286;2024-03-02T10:52:58;34.03;;;19.40;;
11596;SDS011;5854;48.072;16.286;2024-03-02T10:55:25;41.67;;;21.85;;
11596;SDS011;5854;48.072;16.286;2024-03-02T10:57:53;45.65;;;23.02;;
11596;SDS011;5854;48.072;16.286;2024-03-02T11:00:23;44.25;;;21.85;;
11596;SDS011;5854;48.072;16.286;2024-03-02T11:02:56;45.35;;;21.20;;
11596;SDS011;5854;48.072;16.286;2024-03-02T11:05:29;45.63;;;22.02;;
11596;SDS011;5854;48.072;16.286;2024-03-02T11:10:30;43.50;;;21.10;;
11596;SDS011;5854;48.072;16.286;2024-03-02T11:13:05;43.95;;;20.88;;
11596;SDS011;5854;48.072;16.286;2024-03-02T11:15:35;39.08;;;19.95;;
11596;SDS011;5854;48.072;16.286;2024-03-02T11:18:04;44.17;;;22.08;;
11596;SDS011;5854;48.072;16.286;2024-03-02T11:20:34;44.42;;;23.25;;
11596;SDS011;5854;48.072;16.286;2024-03-02T11:23:07;38.45;;;19.77;;
11596;SDS011;5854;48.072;16.286;2024-03-02T11:25:40;42.58;;;21.38;;
11596;SDS011;5854;48.072;16.286;2024-03-02T11:28:08;44.47;;;22.20;;
11596;SDS011;5854;48.072;16.286;2024-03-02T11:30:51;45.13;;;21.35;;
11596;SDS011;5854;48.072;16.286;2024-03-02T11:33:24;45.88;;;21.10;;
11596;SDS011;5854;48.072;16.286;2024-03-02T11:35:54;43.65;;;21.83;;
11596;SDS011;5854;48.072;16.286;2024-03-02T11:38:27;40.28;;;22.92;;
11596;SDS011;5854;48.072;16.286;2024-03-02T11:40:56;39.67;;;22.65;;
11596;SDS011;5854;48.072;16.286;2024-03-02T11:43:24;40.22;;;22.02;;
11596;SDS011;5854;48.072;16.286;2024-03-02T11:45:57;51.35;;;24.35;;
11596;SDS011;5854;48.072;16.286;2024-03-02T11:48:27;47.50;;;23.52;;
11596;SDS011;5854;48.072;16.286;2024-03-02T11:50:57;47.65;;;24.80;;
11596;SDS011;5854;48.072;16.286;2024-03-02T11:53:26;49.92;;;25.65;;
11596;SDS011;5854;48.072;16.286;2024-03-02T11:55:55;48.60;;;24.42;;
11596;SDS011;5854;48.072;16.286;2024-03-02T11:58:22;48.28;;;25.83;;
11596;SDS011;5854;48.072;16.286;2024-03-02T12:00:51;44.47;;;24.27;;
11596;SDS011;5854;48.072;16.286;2024-03-02T12:03:21;30.15;;;16.75;;
11596;SDS011;5854;48.072;16.286;2024-03-02T12:05:52;32.63;;;19.40;;
11596;SDS011;5854;48.072;16.286;2024-03-02T12:08:20;33.00;;;20.35;;
11596;SDS011;5854;48.072;16.286;2024-03-02T12:10:55;26.77;;;16.02;;
11596;SDS011;5854;48.072;16.286;2024-03-02T12:13:23;37.80;;;20.42;;
11596;SDS011;5854;48.072;16.286;2024-03-02T12:15:52;44.00;;;20.98;;
11596;SDS011;5854;48.072;16.286;2024-03-02T12:18:21;30.70;;;15.40;;
11596;SDS011;5854;48.072;16.286;2024-03-02T12:20:49;41.25;;;22.80;;
11596;SDS011;5854;48.072;16.286;2024-03-02T12:23:21;39.50;;;21.40;;
11596;SDS011;5854;48.072;16.286;2024-03-02T12:25:48;33.45;;;18.40;;
11596;SDS011;5854;48.072;16.286;2024-03-02T12:28:16;44.30;;;22.35;;
11596;SDS011;5854;48.072;16.286;2024-03-02T12:30:44;45.47;;;21.00;;
11596;SDS011;5854;48.072;16.286;2024-03-02T12:33:12;44.47;;;22.92;;
11596;SDS011;5854;48.072;16.286;2024-03-02T12:35:40;35.05;;;21.35;;
11596;SDS011;5854;48.072;16.286;2024-03-02T12:38:09;39.58;;;20.75;;
11596;SDS011;5854;48.072;16.286;2024-03-02T12:40:37;45.95;;;22.20;;
11596;SDS011;5854;48.072;16.286;2024-03-02T12:43:05;48.40;;;23.35;;
11596;SDS011;5854;48.072;16.286;2024-03-02T12:45:33;53.58;;;24.73;;
11596;SDS011;5854;48.072;16.286;2024-03-02T12:48:00;45.35;;;23.77;;
11596;SDS011;5854;48.072;16.286;2024-03-02T12:50:30;44.72;;;22.85;;
11596;SDS011;5854;48.072;16.286;2024-03-02T12:52:57;47.83;;;23.33;;
11596;SDS011;5854;48.072;16.286;2024-03-02T12:55:26;40.45;;;22.10;;
11596;SDS011;5854;48.072;16.286;2024-03-02T12:57:54;40.83;;;21.00;;
11596;SDS011;5854;48.072;16.286;2024-03-02T13:00:22;39.60;;;22.05;;
11596;SDS011;5854;48.072;16.286;2024-03-02T13:02:49;42.50;;;23.25;;
11596;SDS011;5854;48.072;16.286;2024-03-02T13:05:16;45.45;;;24.05;;
11596;SDS011;5854;48.072;16.286;2024-03-02T13:07:46;47.08;;;26.13;;
11596;SDS011;5854;48.072;16.286;2024-03-02T13:10:14;42.88;;;22.63;;
11596;SDS011;5854;48.072;16.286;2024-03-02T13:12:43;42.30;;;23.60;;
11596;SDS011;5854;48.072;16.286;2024-03-02T13:15:10;53.17;;;24.58;;
11596;SDS011;5854;48.072;16.286;2024-03-02T13:17:37;44.88;;;22.83;;
11596;SDS011;5854;48.072;16.286;2024-03-02T13:20:06;47.25;;;24.45;;
11596;SDS011;5854;48.072;16.286;2024-03-02T13:22:35;46.03;;;25.05;;
11596;SDS011;5854;48.072;16.286;2024-03-02T13:25:03;51.65;;;24.45;;
11596;SDS011;5854;48.072;16.286;2024-03-02T13:27:31;48.30;;;26.33;;
11596;SDS011;5854;48.072;16.286;2024-03-02T13:30:00;49.90;;;26.50;;
11596;SDS011;5854;48.072;16.286;2024-03-02T13:32:30;45.30;;;22.90;;
11596;SDS011;5854;48.072;16.286;2024-03-02T13:34:58;46.08;;;25.30;;
11596;SDS011;5854;48.072;16.286;2024-03-02T13:37:25;47.00;;;26.48;;
11596;SDS011;5854;48.072;16.286;2024-03-02T13:39:52;55.08;;;26.75;;
11596;SDS011;5854;48.072;16.286;2024-03-02T13:42:19;56.47;;;26.90;;
11596;SDS011;5854;48.072;16.286;2024-03-02T13:44:47;52.13;;;25.92;;
11596;SDS011;5854;48.072;16.286;2024-03-02T13:47:17;44.17;;;24.63;;
11596;SDS011;5854;48.072;16.286;2024-03-02T13:49:46;57.90;;;29.10;;
11596;SDS011;5854;48.072;16.286;2024-03-02T13:52:14;55.42;;;26.20;;
11596;SDS011;5854;48.072;16.286;2024-03-02T13:54:42;53.97;;;25.40;;
11596;SDS011;5854;48.072;16.286;2024-03-02T13:57:10;51.45;;;27.65;;
11596;SDS011;5854;48.072;16.286;2024-03-02T13:59:38;56.83;;;27.85;;
11596;SDS011;5854;48.072;16.286;2024-03-02T14:02:07;56.13;;;28.17;;
11596;SDS011;5854;48.072;16.286;2024-03-02T14:04:39;51.72;;;28.27;;
11596;SDS011;5854;48.072;16.286;2024-03-02T14:07:06;49.65;;;28.27;;
11596;SDS011;5854;48.072;16.286;2024-03-02T14:09:35;51.47;;;25.38;;
11596;SDS011;5854;48.072;16.286;2024-03-02T14:12:03;54.58;;;25.33;;
11596;SDS011;5854;48.072;16.286;2024-03-02T14:14:32;49.35;;;27.83;;
11596;SDS011;5854;48.072;16.286;2024-03-02T14:16:59;53.72;;;24.75;;
11596;SDS011;5854;48.072;16.286;2024-03-02T14:19:29;55.88;;;28.00;;
11596;SDS011;5854;48.072;16.286;2024-03-02T14:21:58;49.38;;;25.33;;
11596;SDS011;5854;48.072;16.286;2024-03-02T14:24:25;45.67;;;25.92;;
11596;SDS011;5854;48.072;16.286;2024-03-02T14:26:54;59.58;;;28.98;;
11596;SDS011;5854;48.072;16.286;2024-03-02T14:29:22;55.05;;;26.58;;
11596;SDS011;5854;48.072;16.286;2024-03-02T14:31:49;57.35;;;27.13;;
11596;SDS011;5854;48.072;16.286;2024-03-02T14:34:17;56.00;;;27.58;;
11596;SDS011;5854;48.072;16.286;2024-03-02T14:36:44;51.72;;;27.73;;